Shoukeimaruno.3 — JI3587 — position and weather

sailwx.info

Track history (hours):
 
Tides and Currents Weather Stations Pressure Air Temp Water Temp Dewpoint Dewpoint Depression Visibility Wind Speed Wind Dir Waves Ship Positions

Shoukeimaruno.3

Last reported at 2015-Jan-19 21:25 UTC. Time now 2015-Jan-27 18:56 UTC.
Position N 35°05' E 138°42'.

Length 77 m; draft 3.4 m.

Type: Cargo ship. MMSI: 431300325.

Date/timePositionNaut miles runAvg speedWind from/ knotsBaromVisibWave heightAir tempDewpointWater temp
2015-Jan-19 21:25N 35°05' E 138°42'26 3.8
2015-Jan-19 14:32N 34°55' E 139°12'1110.8
2015-Jan-19 13:29N 35°00' E 139°24'1011.0
2015-Jan-19 12:33N 35°05' E 139°35'1110.5
2015-Jan-19 11:33N 35°12' E 139°45'1211.9
2015-Jan-19 10:33N 35°23' E 139°41'0 0.3
2015-Jan-19 09:33N 35°23' E 139°40'0 0.0
2015-Jan-19 08:33N 35°23' E 139°40'0 0.0
2015-Jan-19 07:33N 35°23' E 139°40'0 0.0
2015-Jan-19 06:33N 35°23' E 139°40'0 0.0
2015-Jan-19 05:33N 35°23' E 139°40'0 0.0
2015-Jan-19 04:33N 35°23' E 139°40'1010.0
2015-Jan-19 03:33N 35°29' E 139°50'5 0.9
2015-Jan-18 21:30N 35°31' E 139°56'2 2.1
2015-Jan-18 20:33N 35°30' E 139°54'9 8.9
2015-Jan-18 19:33N 35°24' E 139°46'9 9.1
2015-Jan-18 18:33N 35°14' E 139°47'1211.7
2015-Jan-18 17:33N 35°03' E 139°44'  
2015-Jan-14 02:21N 34°60' E 140°08'1810.3
2015-Jan-14 00:33N 34°55' E 139°47'1110.5
2015-Jan-13 23:33N 35°05' E 139°44'1111.4
2015-Jan-13 22:33N 35°16' E 139°45'10 9.6
2015-Jan-13 21:33N 35°26' E 139°45'1211.6
2015-Jan-13 20:33N 35°32' E 139°57'2 0.2
2015-Jan-13 09:32N 35°30' E 139°59'1 1.1
2015-Jan-13 08:33N 35°29' E 139°60'1 0.1
2015-Jan-12 22:17N 35°30' E 139°59'0 0.0
2015-Jan-12 21:32N 35°30' E 139°59'0 0.0
2015-Jan-12 20:32N 35°30' E 139°59'0 0.0
2015-Jan-12 18:26N 35°30' E 139°59'0 0.0
2015-Jan-12 17:32N 35°30' E 139°59'0 0.0
2015-Jan-12 16:32N 35°30' E 139°59'0 0.0
2015-Jan-12 15:32N 35°30' E 139°59'0 0.0
2015-Jan-12 14:29N 35°30' E 139°59'0 0.0
2015-Jan-12 13:32N 35°30' E 139°59'0 0.0
2015-Jan-12 12:22N 35°30' E 139°59'0 0.0
2015-Jan-12 11:32N 35°30' E 139°59'0 0.0
2015-Jan-12 10:32N 35°30' E 139°59'0 0.0
2015-Jan-12 03:18N 35°30' E 139°59'0 0.0
2015-Jan-12 02:33N 35°30' E 139°59'0 0.0
2015-Jan-12 01:32N 35°30' E 139°59'0 0.0
2015-Jan-12 00:33N 35°30' E 139°59'0 0.0
2015-Jan-11 23:33N 35°30' E 139°59'0 0.0
2015-Jan-11 22:33N 35°30' E 139°59'0 0.0
2015-Jan-11 21:30N 35°30' E 139°59'0 0.0
2015-Jan-11 20:30N 35°30' E 139°59'0 0.0
2015-Jan-11 19:32N 35°30' E 139°59'0 0.0
2015-Jan-11 18:33N 35°30' E 139°59'0 0.0
2015-Jan-11 17:27N 35°30' E 139°59'0 0.1
2015-Jan-11 16:31N 35°30' E 139°59'0 0.0
2015-Jan-11 15:30N 35°30' E 139°59'0 0.0
2015-Jan-11 14:15N 35°30' E 139°59'0 0.0
2015-Jan-11 13:31N 35°30' E 139°59'0 0.0
2015-Jan-11 12:33N 35°30' E 139°59'0 0.0
2015-Jan-11 11:25N 35°30' E 139°59'0 0.0
2015-Jan-11 10:23N 35°30' E 139°59'0 0.0
2015-Jan-11 09:27N 35°30' E 139°59'0 0.0
2015-Jan-11 08:30N 35°30' E 139°59'0 0.0
2015-Jan-11 07:27N 35°30' E 139°59'0 0.0
2015-Jan-11 06:07N 35°30' E 139°59'5 8.5
2015-Jan-11 05:33N 35°29' E 139°53'1110.6
2015-Jan-11 04:33N 35°20' E 139°45'10 9.8
2015-Jan-11 03:33N 35°11' E 139°46'1211.7
2015-Jan-11 02:33N 34°59' E 139°44'  
Track history (hours):
 
Tides and Currents Weather Stations Pressure Air Temp Water Temp Dewpoint Dewpoint Depression Visibility Wind Speed Wind Dir Waves Ship Positions

Shoukeimaruno.3

Last reported at 2015-Jan-19 21:25 UTC. Time now 2015-Jan-27 18:56 UTC.
Position N 35°05' E 138°42'.

Length 77 m; draft 3.4 m.

Type: Cargo ship. MMSI: 431300325.

Date/timePositionNaut miles runAvg speedWind from/ knotsBaromVisibWave heightAir tempDewpointWater temp
2015-Jan-19 21:25N 35°05' E 138°42'26 3.8
2015-Jan-19 14:32N 34°55' E 139°12'1110.8
2015-Jan-19 13:29N 35°00' E 139°24'1011.0
2015-Jan-19 12:33N 35°05' E 139°35'1110.5
2015-Jan-19 11:33N 35°12' E 139°45'1211.9
2015-Jan-19 10:33N 35°23' E 139°41'0 0.3
2015-Jan-19 09:33N 35°23' E 139°40'0 0.0
2015-Jan-19 08:33N 35°23' E 139°40'0 0.0
2015-Jan-19 07:33N 35°23' E 139°40'0 0.0
2015-Jan-19 06:33N 35°23' E 139°40'0 0.0
2015-Jan-19 05:33N 35°23' E 139°40'0 0.0
2015-Jan-19 04:33N 35°23' E 139°40'1010.0
2015-Jan-19 03:33N 35°29' E 139°50'5 0.9
2015-Jan-18 21:30N 35°31' E 139°56'2 2.1
2015-Jan-18 20:33N 35°30' E 139°54'9 8.9
2015-Jan-18 19:33N 35°24' E 139°46'9 9.1
2015-Jan-18 18:33N 35°14' E 139°47'1211.7
2015-Jan-18 17:33N 35°03' E 139°44'  
2015-Jan-14 02:21N 34°60' E 140°08'1810.3
2015-Jan-14 00:33N 34°55' E 139°47'1110.5
2015-Jan-13 23:33N 35°05' E 139°44'1111.4
2015-Jan-13 22:33N 35°16' E 139°45'10 9.6
2015-Jan-13 21:33N 35°26' E 139°45'1211.6
2015-Jan-13 20:33N 35°32' E 139°57'2 0.2
2015-Jan-13 09:32N 35°30' E 139°59'1 1.1
2015-Jan-13 08:33N 35°29' E 139°60'1 0.1
2015-Jan-12 22:17N 35°30' E 139°59'0 0.0
2015-Jan-12 21:32N 35°30' E 139°59'0 0.0
2015-Jan-12 20:32N 35°30' E 139°59'0 0.0
2015-Jan-12 18:26N 35°30' E 139°59'0 0.0
2015-Jan-12 17:32N 35°30' E 139°59'0 0.0
2015-Jan-12 16:32N 35°30' E 139°59'0 0.0
2015-Jan-12 15:32N 35°30' E 139°59'0 0.0
2015-Jan-12 14:29N 35°30' E 139°59'0 0.0
2015-Jan-12 13:32N 35°30' E 139°59'0 0.0
2015-Jan-12 12:22N 35°30' E 139°59'0 0.0
2015-Jan-12 11:32N 35°30' E 139°59'0 0.0
2015-Jan-12 10:32N 35°30' E 139°59'0 0.0
2015-Jan-12 03:18N 35°30' E 139°59'0 0.0
2015-Jan-12 02:33N 35°30' E 139°59'0 0.0
2015-Jan-12 01:32N 35°30' E 139°59'0 0.0
2015-Jan-12 00:33N 35°30' E 139°59'0 0.0
2015-Jan-11 23:33N 35°30' E 139°59'0 0.0
2015-Jan-11 22:33N 35°30' E 139°59'0 0.0
2015-Jan-11 21:30N 35°30' E 139°59'0 0.0
2015-Jan-11 20:30N 35°30' E 139°59'0 0.0
2015-Jan-11 19:32N 35°30' E 139°59'0 0.0
2015-Jan-11 18:33N 35°30' E 139°59'0 0.0
2015-Jan-11 17:27N 35°30' E 139°59'0 0.1
2015-Jan-11 16:31N 35°30' E 139°59'0 0.0
2015-Jan-11 15:30N 35°30' E 139°59'0 0.0
2015-Jan-11 14:15N 35°30' E 139°59'0 0.0
2015-Jan-11 13:31N 35°30' E 139°59'0 0.0
2015-Jan-11 12:33N 35°30' E 139°59'0 0.0
2015-Jan-11 11:25N 35°30' E 139°59'0 0.0
2015-Jan-11 10:23N 35°30' E 139°59'0 0.0
2015-Jan-11 09:27N 35°30' E 139°59'0 0.0
2015-Jan-11 08:30N 35°30' E 139°59'0 0.0
2015-Jan-11 07:27N 35°30' E 139°59'0 0.0
2015-Jan-11 06:07N 35°30' E 139°59'5 8.5
2015-Jan-11 05:33N 35°29' E 139°53'1110.6
2015-Jan-11 04:33N 35°20' E 139°45'10 9.8
2015-Jan-11 03:33N 35°11' E 139°46'1211.7
2015-Jan-11 02:33N 34°59' E 139°44'  

Dump ship's entire track history